createdAt,value
2023-04-19T00:01:17.634Z,12.05
2023-04-19T00:06:21.160Z,11.13
2023-04-19T00:11:23.119Z,10.07
2023-04-19T00:16:25.321Z,9.57
2023-04-19T00:21:27.605Z,10.20
2023-04-19T00:26:29.367Z,10.35
2023-04-19T00:31:32.124Z,9.20
2023-04-19T00:36:34.134Z,9.50
2023-04-19T00:41:35.866Z,9.25
2023-04-19T00:46:39.594Z,9.38
2023-04-19T00:51:41.864Z,9.52
2023-04-19T00:56:45.727Z,10.80
2023-04-19T01:01:47.838Z,10.25
2023-04-19T01:06:51.201Z,9.23
2023-04-19T01:11:55.262Z,9.35
2023-04-19T01:16:57.762Z,11.68
2023-04-19T01:22:03.082Z,12.07
2023-04-19T01:27:04.880Z,10.00
2023-04-19T01:32:06.622Z,11.40
2023-04-19T01:37:08.551Z,11.27
2023-04-19T01:42:10.846Z,10.98
2023-04-19T01:47:12.728Z,11.65
2023-04-19T01:52:15.246Z,11.10
2023-04-19T01:57:18.736Z,11.40
2023-04-19T02:02:20.634Z,11.25
2023-04-19T02:07:22.710Z,11.48
2023-04-19T02:12:28.477Z,10.80
2023-04-19T02:17:30.722Z,10.52
2023-04-19T02:22:34.549Z,11.05
2023-04-19T02:27:36.439Z,10.95
2023-04-19T02:32:38.210Z,11.00
2023-04-19T02:37:42.146Z,12.32
2023-04-19T02:42:43.891Z,12.05
2023-04-19T02:47:46.716Z,11.27
2023-04-19T02:52:48.916Z,10.73
2023-04-19T02:57:51.042Z,11.27
2023-04-19T03:02:53.394Z,11.73
2023-04-19T03:07:55.555Z,11.63
2023-04-19T03:12:57.820Z,11.07
2023-04-19T03:17:59.978Z,10.98
2023-04-19T03:23:03.374Z,10.93
2023-04-19T03:28:06.845Z,11.23
2023-04-19T03:33:34.761Z,11.02
2023-04-19T03:38:37.474Z,10.00
2023-04-19T03:43:42.535Z,11.20
2023-04-19T03:48:44.550Z,12.15
2023-04-19T03:53:47.498Z,11.55
2023-04-19T03:58:52.657Z,13.95
2023-04-19T04:03:54.801Z,12.10
2023-04-19T04:08:57.228Z,11.95
2023-04-19T04:14:00.520Z,12.73
2023-04-19T04:19:06.092Z,13.02
2023-04-19T04:24:10.849Z,13.23
2023-04-19T04:29:20.625Z,14.65
2023-04-19T04:34:24.647Z,21.60
2023-04-19T04:39:38.983Z,19.25
2023-04-19T04:44:42.176Z,16.85
2023-04-19T04:49:47.063Z,18.17
2023-04-19T04:54:49.157Z,15.55
2023-04-19T05:00:00.880Z,16.95
2023-04-19T05:05:11.662Z,18.75
2023-04-19T05:10:13.446Z,17.65
2023-04-19T05:15:20.630Z,18.23
2023-04-19T05:20:26.570Z,17.60
2023-04-19T05:25:36.732Z,19.58
2023-04-19T05:30:39.576Z,18.75
2023-04-19T05:35:41.607Z,17.45
2023-04-19T05:40:43.613Z,19.75
2023-04-19T05:45:45.525Z,17.20
2023-04-19T05:50:47.308Z,19.00
2023-04-19T05:56:06.890Z,24.45
2023-04-19T06:01:08.748Z,21.27
2023-04-19T06:06:10.932Z,17.17
2023-04-19T06:11:23.247Z,15.07
2023-04-19T06:16:28.712Z,23.42
2023-04-19T06:21:31.649Z,19.83
2023-04-19T06:26:33.562Z,22.13
2023-04-19T06:31:35.427Z,19.90
2023-04-19T06:36:37.470Z,19.88
2023-04-19T06:41:39.335Z,19.40
2023-04-19T06:46:41.186Z,18.45
2023-04-19T06:51:43.052Z,18.73
2023-04-19T06:56:46.756Z,18.80
2023-04-19T07:01:48.952Z,18.83
2023-04-19T07:06:50.925Z,21.58
2023-04-19T07:11:52.712Z,16.80
2023-04-19T07:16:54.843Z,16.58
2023-04-19T07:21:56.666Z,13.85
2023-04-19T07:26:58.467Z,12.63
2023-04-19T07:32:01.789Z,12.32
2023-04-19T07:37:03.581Z,9.90
2023-04-19T07:42:05.647Z,9.48
2023-04-19T07:47:07.419Z,9.80
2023-04-19T07:52:09.256Z,9.32
2023-04-19T07:57:10.971Z,9.75
2023-04-19T08:02:12.926Z,11.30
2023-04-19T08:07:14.818Z,11.43
2023-04-19T08:12:30.970Z,10.40
2023-04-19T08:17:41.912Z,9.65
2023-04-19T08:22:44.345Z,11.00
2023-04-19T08:27:46.131Z,9.20
2023-04-19T08:32:48.308Z,9.95
2023-04-19T08:37:50.312Z,9.52
2023-04-19T08:42:52.134Z,9.88
2023-04-19T08:48:00.685Z,8.45
2023-04-19T08:53:20.822Z,7.38
2023-04-19T08:58:40.708Z,7.10
2023-04-19T09:04:01.304Z,8.55
2023-04-19T09:14:26.357Z,8.68
2023-04-19T09:19:46.707Z,7.25
2023-04-19T09:30:00.979Z,6.97
2023-04-19T09:35:02.863Z,6.90
2023-04-19T09:40:24.659Z,6.70
2023-04-19T09:45:43.634Z,7.10
2023-04-19T09:51:08.866Z,6.53
2023-04-19T09:56:12.965Z,6.70
2023-04-19T10:01:16.760Z,8.85
2023-04-19T10:11:27.321Z,13.32
2023-04-19T10:16:30.724Z,8.30
2023-04-19T10:21:34.067Z,3.97
2023-04-19T10:27:13.792Z,4.38
2023-04-19T10:32:15.564Z,4.18
2023-04-19T10:37:17.383Z,4.90
2023-04-19T10:42:19.275Z,4.97
2023-04-19T10:47:46.067Z,6.40
2023-04-19T10:52:47.873Z,7.13
2023-04-19T10:58:06.194Z,6.80
2023-04-19T11:03:43.722Z,18.50
2023-04-19T11:08:47.096Z,8.98
2023-04-19T11:13:49.075Z,12.10
2023-04-19T11:18:51.914Z,12.73
2023-04-19T11:24:09.763Z,9.55
2023-04-19T11:29:12.151Z,9.65
2023-04-19T11:34:14.106Z,10.60
2023-04-19T11:39:16.355Z,13.07
2023-04-19T11:44:22.289Z,9.88
2023-04-19T11:49:29.202Z,9.48
2023-04-19T11:54:31.183Z,10.60
2023-04-19T11:59:35.218Z,10.27
2023-04-19T12:04:38.499Z,14.10
2023-04-19T12:09:40.501Z,10.55
2023-04-19T12:14:52.186Z,10.05
2023-04-19T12:19:53.949Z,9.18
2023-04-19T12:24:55.986Z,9.65
2023-04-19T12:29:57.759Z,8.82
2023-04-19T12:34:59.521Z,11.43
2023-04-19T12:40:01.351Z,20.25
2023-04-19T12:45:03.201Z,14.05
2023-04-19T12:50:06.455Z,8.63
2023-04-19T12:55:10.286Z,8.27
2023-04-19T13:00:12.793Z,8.82
2023-04-19T13:05:14.746Z,7.85
2023-04-19T13:10:16.724Z,8.80
2023-04-19T13:15:18.605Z,8.18
2023-04-19T13:20:20.692Z,7.53
2023-04-19T13:25:22.678Z,7.75
2023-04-19T13:30:24.533Z,7.18
2023-04-19T13:35:26.355Z,7.32
2023-04-19T13:40:28.103Z,6.93
2023-04-19T13:45:29.887Z,7.68
2023-04-19T13:50:31.678Z,6.32
2023-04-19T13:55:33.880Z,6.47
2023-04-19T14:00:35.658Z,6.88
2023-04-19T14:05:37.877Z,6.28
2023-04-19T14:10:40.606Z,5.75
2023-04-19T14:15:42.457Z,7.25
2023-04-19T14:20:44.342Z,6.38
2023-04-19T14:25:46.489Z,5.97
2023-04-19T14:30:48.480Z,5.32
2023-04-19T14:35:50.467Z,4.88
2023-04-19T14:40:52.392Z,5.18
2023-04-19T14:45:54.408Z,4.43
2023-04-19T14:50:56.264Z,4.40
2023-04-19T14:55:58.116Z,4.80
2023-04-19T15:01:00.113Z,4.20
2023-04-19T15:06:03.703Z,4.55
2023-04-19T15:11:06.014Z,5.95
2023-04-19T15:16:09.042Z,5.40
2023-04-19T15:21:11.221Z,4.20
2023-04-19T15:26:13.376Z,3.88
2023-04-19T15:31:16.897Z,4.03
2023-04-19T15:36:19.196Z,3.85
2023-04-19T15:41:21.111Z,3.50
2023-04-19T15:46:23.523Z,3.90
2023-04-19T15:51:26.807Z,4.07
2023-04-19T15:56:30.178Z,3.88
2023-04-19T16:01:32.182Z,2.92
2023-04-19T16:06:34.052Z,3.30
2023-04-19T16:11:35.937Z,3.30
2023-04-19T16:16:37.853Z,3.33
2023-04-19T16:21:39.831Z,3.22
2023-04-19T16:26:41.615Z,3.08
2023-04-19T16:31:43.424Z,3.10
2023-04-19T16:36:45.651Z,3.80
2023-04-19T16:41:47.499Z,3.17
2023-04-19T16:46:49.227Z,3.88
2023-04-19T16:51:51.544Z,3.10
2023-04-19T16:56:53.377Z,3.20
2023-04-19T17:02:01.322Z,3.20
2023-04-19T17:07:04.380Z,3.58
2023-04-19T17:12:06.747Z,3.65
2023-04-19T17:17:08.604Z,3.10
2023-04-19T17:22:10.794Z,3.67
2023-04-19T17:27:12.803Z,2.95
2023-04-19T17:32:14.621Z,3.13
2023-04-19T17:37:16.839Z,3.63
2023-04-19T17:42:18.868Z,3.85
2023-04-19T17:47:20.865Z,3.85
2023-04-19T17:52:22.750Z,3.97
2023-04-19T17:57:27.343Z,6.20
2023-04-19T18:02:29.274Z,5.20
2023-04-19T18:07:31.601Z,4.88
2023-04-19T18:12:33.544Z,4.90
2023-04-19T18:17:35.998Z,4.68
2023-04-19T18:22:37.942Z,5.70
2023-04-19T18:27:39.917Z,4.13
2023-04-19T18:32:41.789Z,4.22
2023-04-19T18:37:43.712Z,4.20
2023-04-19T18:42:45.603Z,5.65
2023-04-19T18:47:48.329Z,4.63
2023-04-19T18:52:50.127Z,4.55
2023-04-19T18:57:52.007Z,4.35
2023-04-19T19:02:54.125Z,4.22
2023-04-19T19:07:57.185Z,4.13
2023-04-19T19:12:59.214Z,4.38
2023-04-19T19:18:00.992Z,4.05
2023-04-19T19:23:03.312Z,4.80
2023-04-19T19:28:07.426Z,4.30
2023-04-19T19:33:11.987Z,4.30
2023-04-19T19:38:13.797Z,4.75
2023-04-19T19:43:15.768Z,4.47
2023-04-19T19:48:17.756Z,4.60
2023-04-19T19:53:19.717Z,6.28
2023-04-19T19:58:46.374Z,5.05
2023-04-19T20:03:43.764Z,5.15
2023-04-19T20:08:47.343Z,5.07
2023-04-19T20:13:49.312Z,4.80
2023-04-19T20:18:52.584Z,5.03
2023-04-19T20:23:54.427Z,5.35
2023-04-19T20:28:56.302Z,5.50
2023-04-19T20:33:58.757Z,5.82
2023-04-19T20:39:03.599Z,5.13
2023-04-19T20:44:06.403Z,5.45
2023-04-19T20:49:08.170Z,5.18
2023-04-19T20:54:09.973Z,5.20
2023-04-19T20:59:11.778Z,5.18
2023-04-19T21:04:13.755Z,5.20
2023-04-19T21:09:15.905Z,6.43
2023-04-19T21:14:18.544Z,4.90
2023-04-19T21:19:20.647Z,5.00
2023-04-19T21:24:22.503Z,4.63
2023-04-19T21:29:25.406Z,4.82
2023-04-19T21:34:27.193Z,5.38
2023-04-19T21:39:28.979Z,5.53
2023-04-19T21:44:30.893Z,4.97
2023-04-19T21:49:33.494Z,4.80
2023-04-19T21:54:35.427Z,4.85
2023-04-19T21:59:37.820Z,4.38
2023-04-19T22:04:41.795Z,5.00
2023-04-19T22:09:43.750Z,4.63
2023-04-19T22:14:45.663Z,4.78
2023-04-19T22:19:51.557Z,5.40
2023-04-19T22:24:57.948Z,4.82
2023-04-19T22:30:00.268Z,4.90
2023-04-19T22:35:02.312Z,5.32
2023-04-19T22:40:06.727Z,5.25
2023-04-19T22:45:09.220Z,4.80
2023-04-19T22:50:11.425Z,4.95
2023-04-19T22:55:13.357Z,4.97
2023-04-19T23:00:17.062Z,4.80
2023-04-19T23:05:19.061Z,4.95
2023-04-19T23:10:21.607Z,5.20
2023-04-19T23:15:24.714Z,5.10
2023-04-19T23:20:26.658Z,5.40
2023-04-19T23:25:28.663Z,5.82
2023-04-19T23:30:32.010Z,5.53
2023-04-19T23:35:33.814Z,5.22
2023-04-19T23:40:36.624Z,5.13
2023-04-19T23:45:38.382Z,4.80
2023-04-19T23:50:40.282Z,5.32
2023-04-19T23:55:42.011Z,5.28
